sensor_id;sensor_type;location;lat;lon;timestamp;pressure;altitude;pressure_sealevel;temperature;humidity
15272;BME280;7737;51.578;7.268;2023-03-25T00:01:29;99750.66;;;10.13;100.00
15272;BME280;7737;51.578;7.268;2023-03-25T00:03:58;99747.69;;;10.17;100.00
15272;BME280;7737;51.578;7.268;2023-03-25T00:06:25;99750.53;;;10.14;100.00
15272;BME280;7737;51.578;7.268;2023-03-25T00:08:52;99747.88;;;10.14;100.00
15272;BME280;7737;51.578;7.268;2023-03-25T00:11:19;99759.28;;;10.16;100.00
15272;BME280;7737;51.578;7.268;2023-03-25T00:13:46;99757.84;;;10.11;100.00
15272;BME280;7737;51.578;7.268;2023-03-25T00:16:13;99749.19;;;10.07;100.00
15272;BME280;7737;51.578;7.268;2023-03-25T00:18:40;99750.53;;;10.00;100.00
15272;BME280;7737;51.578;7.268;2023-03-25T00:21:08;99764.50;;;9.90;100.00
15272;BME280;7737;51.578;7.268;2023-03-25T00:23:36;99767.41;;;9.85;100.00
15272;BME280;7737;51.578;7.268;2023-03-25T00:26:04;99758.31;;;9.89;100.00
15272;BME280;7737;51.578;7.268;2023-03-25T00:28:33;99758.41;;;9.88;100.00
15272;BME280;7737;51.578;7.268;2023-03-25T00:31:02;99765.31;;;9.90;100.00
15272;BME280;7737;51.578;7.268;2023-03-25T00:33:29;99765.31;;;9.90;100.00
15272;BME280;7737;51.578;7.268;2023-03-25T00:35:57;99768.75;;;9.92;100.00
15272;BME280;7737;51.578;7.268;2023-03-25T00:38:28;99768.94;;;9.89;100.00
15272;BME280;7737;51.578;7.268;2023-03-25T00:40:58;99763.63;;;9.89;100.00
15272;BME280;7737;51.578;7.268;2023-03-25T00:43:28;99773.13;;;9.79;100.00
15272;BME280;7737;51.578;7.268;2023-03-25T00:45:55;99771.03;;;9.84;100.00
15272;BME280;7737;51.578;7.268;2023-03-25T00:48:21;99765.53;;;9.87;100.00
15272;BME280;7737;51.578;7.268;2023-03-25T00:50:48;99769.88;;;9.88;100.00
15272;BME280;7737;51.578;7.268;2023-03-25T00:53:14;99753.00;;;9.89;100.00
15272;BME280;7737;51.578;7.268;2023-03-25T00:55:42;99767.22;;;9.88;100.00
15272;BME280;7737;51.578;7.268;2023-03-25T00:58:08;99763.25;;;9.81;100.00
15272;BME280;7737;51.578;7.268;2023-03-25T01:00:35;99760.31;;;9.86;100.00
15272;BME280;7737;51.578;7.268;2023-03-25T01:03:01;99764.50;;;9.90;100.00
15272;BME280;7737;51.578;7.268;2023-03-25T01:05:28;99764.56;;;9.88;100.00
15272;BME280;7737;51.578;7.268;2023-03-25T01:07:55;99770.84;;;9.87;100.00
15272;BME280;7737;51.578;7.268;2023-03-25T01:10:21;99770.72;;;9.89;100.00
15272;BME280;7737;51.578;7.268;2023-03-25T01:12:49;99764.56;;;9.88;100.00
15272;BME280;7737;51.578;7.268;2023-03-25T01:15:16;99768.94;;;9.89;100.00
15272;BME280;7737;51.578;7.268;2023-03-25T01:17:42;99767.22;;;9.88;100.00
15272;BME280;7737;51.578;7.268;2023-03-25T01:20:09;99758.81;;;9.82;100.00
15272;BME280;7737;51.578;7.268;2023-03-25T01:22:36;99763.13;;;9.82;100.00
15272;BME280;7737;51.578;7.268;2023-03-25T01:25:03;99766.75;;;9.82;100.00
15272;BME280;7737;51.578;7.268;2023-03-25T01:27:29;99766.75;;;9.82;100.00
15272;BME280;7737;51.578;7.268;2023-03-25T01:29:57;99763.13;;;9.82;100.00
15272;BME280;7737;51.578;7.268;2023-03-25T01:32:24;99754.53;;;9.79;100.00
15272;BME280;7737;51.578;7.268;2023-03-25T01:34:50;99766.94;;;9.78;100.00
15272;BME280;7737;51.578;7.268;2023-03-25T01:37:17;99755.28;;;9.81;100.00
15272;BME280;7737;51.578;7.268;2023-03-25T01:39:43;99753.75;;;9.77;100.00
15272;BME280;7737;51.578;7.268;2023-03-25T01:42:11;99743.13;;;9.77;100.00
15272;BME280;7737;51.578;7.268;2023-03-25T01:45:14;99749.31;;;9.77;100.00
15272;BME280;7737;51.578;7.268;2023-03-25T01:47:42;99747.50;;;9.78;100.00
15272;BME280;7737;51.578;7.268;2023-03-25T01:50:10;99742.31;;;9.76;100.00
15272;BME280;7737;51.578;7.268;2023-03-25T01:52:41;99743.72;;;9.82;100.00
15272;BME280;7737;51.578;7.268;2023-03-25T01:55:09;99745.41;;;9.83;100.00
15272;BME280;7737;51.578;7.268;2023-03-25T01:57:39;99745.34;;;9.85;100.00
15272;BME280;7737;51.578;7.268;2023-03-25T02:00:09;99744.66;;;9.81;100.00
15272;BME280;7737;51.578;7.268;2023-03-25T02:02:38;99739.72;;;9.75;100.00
15272;BME280;7737;51.578;7.268;2023-03-25T02:05:08;99742.00;;;9.67;100.00
15272;BME280;7737;51.578;7.268;2023-03-25T02:07:38;99733.28;;;9.65;100.00
15272;BME280;7737;51.578;7.268;2023-03-25T02:10:08;99735.00;;;9.66;100.00
15272;BME280;7737;51.578;7.268;2023-03-25T02:12:35;99733.09;;;9.68;100.00
15272;BME280;7737;51.578;7.268;2023-03-25T02:15:04;99739.91;;;9.72;100.00
15272;BME280;7737;51.578;7.268;2023-03-25T02:17:43;99728.19;;;9.76;100.00
15272;BME280;7737;51.578;7.268;2023-03-25T02:20:28;99727.44;;;9.74;100.00
15272;BME280;7737;51.578;7.268;2023-03-25T02:26:30;99733.66;;;9.59;100.00
15272;BME280;7737;51.578;7.268;2023-03-25T02:29:06;99738.09;;;9.58;100.00
15272;BME280;7737;51.578;7.268;2023-03-25T02:31:45;99741.81;;;9.56;100.00
15272;BME280;7737;51.578;7.268;2023-03-25T02:34:35;99744.28;;;9.59;100.00
15272;BME280;7737;51.578;7.268;2023-03-25T02:37:28;99738.88;;;9.60;100.00
15272;BME280;7737;51.578;7.268;2023-03-25T02:40:02;99736.97;;;9.62;100.00
15272;BME280;7737;51.578;7.268;2023-03-25T02:42:33;99742.28;;;9.62;100.00
15272;BME280;7737;51.578;7.268;2023-03-25T02:45:05;99738.78;;;9.62;100.00
15272;BME280;7737;51.578;7.268;2023-03-25T02:47:37;99731.56;;;9.64;100.00
15272;BME280;7737;51.578;7.268;2023-03-25T02:50:09;99729.88;;;9.63;100.00
15272;BME280;7737;51.578;7.268;2023-03-25T02:52:39;99732.44;;;9.64;100.00
15272;BME280;7737;51.578;7.268;2023-03-25T02:55:13;99730.81;;;9.62;100.00
15272;BME280;7737;51.578;7.268;2023-03-25T02:57:43;99727.03;;;9.66;100.00
15272;BME280;7737;51.578;7.268;2023-03-25T03:00:12;99719.09;;;9.66;100.00
15272;BME280;7737;51.578;7.268;2023-03-25T03:02:42;99724.41;;;9.66;100.00
15272;BME280;7737;51.578;7.268;2023-03-25T03:05:21;99713.00;;;9.64;100.00
15272;BME280;7737;51.578;7.268;2023-03-25T03:07:53;99715.75;;;9.62;100.00
15272;BME280;7737;51.578;7.268;2023-03-25T03:10:25;99718.22;;;9.65;100.00
15272;BME280;7737;51.578;7.268;2023-03-25T03:13:02;99712.06;;;9.65;100.00
15272;BME280;7737;51.578;7.268;2023-03-25T03:15:39;99713.41;;;9.58;100.00
15272;BME280;7737;51.578;7.268;2023-03-25T03:18:14;99708.91;;;9.58;100.00
15272;BME280;7737;51.578;7.268;2023-03-25T03:20:52;99723.03;;;9.59;100.00
15272;BME280;7737;51.578;7.268;2023-03-25T03:23:24;99717.56;;;9.62;100.00
15272;BME280;7737;51.578;7.268;2023-03-25T03:26:02;99709.69;;;9.60;100.00
15272;BME280;7737;51.578;7.268;2023-03-25T03:28:35;99707.31;;;9.56;100.00
15272;BME280;7737;51.578;7.268;2023-03-25T03:31:07;99706.38;;;9.57;100.00
15272;BME280;7737;51.578;7.268;2023-03-25T03:33:38;99706.47;;;9.55;100.00
15272;BME280;7737;51.578;7.268;2023-03-25T03:36:10;99704.66;;;9.56;100.00
15272;BME280;7737;51.578;7.268;2023-03-25T03:38:44;99702.00;;;9.56;100.00
15272;BME280;7737;51.578;7.268;2023-03-25T03:41:17;99706.75;;;9.51;100.00
15272;BME280;7737;51.578;7.268;2023-03-25T03:43:47;99705.81;;;9.52;100.00
15272;BME280;7737;51.578;7.268;2023-03-25T03:46:19;99709.41;;;9.51;100.00
15272;BME280;7737;51.578;7.268;2023-03-25T03:48:52;99709.56;;;9.48;100.00
15272;BME280;7737;51.578;7.268;2023-03-25T03:51:23;99720.75;;;9.39;100.00
15272;BME280;7737;51.578;7.268;2023-03-25T03:53:53;99717.50;;;9.19;100.00
15272;BME280;7737;51.578;7.268;2023-03-25T03:56:25;99734.16;;;9.07;100.00
15272;BME280;7737;51.578;7.268;2023-03-25T03:58:57;99743.78;;;8.94;100.00
15272;BME280;7737;51.578;7.268;2023-03-25T04:01:30;99747.75;;;9.01;100.00
15272;BME280;7737;51.578;7.268;2023-03-25T04:04:04;99752.03;;;9.04;100.00
15272;BME280;7737;51.578;7.268;2023-03-25T04:06:35;99744.94;;;9.04;100.00
15272;BME280;7737;51.578;7.268;2023-03-25T04:09:08;99746.72;;;9.04;100.00
15272;BME280;7737;51.578;7.268;2023-03-25T04:11:47;99738.50;;;9.08;100.00
15272;BME280;7737;51.578;7.268;2023-03-25T04:14:18;99744.38;;;9.13;100.00
15272;BME280;7737;51.578;7.268;2023-03-25T04:16:45;99739.94;;;9.14;100.00
15272;BME280;7737;51.578;7.268;2023-03-25T04:19:11;99735.38;;;9.16;100.00
15272;BME280;7737;51.578;7.268;2023-03-25T04:21:42;99740.78;;;9.14;100.00
15272;BME280;7737;51.578;7.268;2023-03-25T04:24:09;99747.25;;;9.10;100.00
15272;BME280;7737;51.578;7.268;2023-03-25T04:26:35;99756.84;;;8.97;100.00
15272;BME280;7737;51.578;7.268;2023-03-25T04:29:04;99751.34;;;9.00;100.00
15272;BME280;7737;51.578;7.268;2023-03-25T04:31:32;99753.25;;;8.98;100.00
15272;BME280;7737;51.578;7.268;2023-03-25T04:33:59;99750.53;;;9.00;100.00
15272;BME280;7737;51.578;7.268;2023-03-25T04:36:27;99738.88;;;9.02;100.00
15272;BME280;7737;51.578;7.268;2023-03-25T04:38:54;99742.28;;;9.04;100.00
15272;BME280;7737;51.578;7.268;2023-03-25T04:41:20;99732.63;;;9.03;100.00
15272;BME280;7737;51.578;7.268;2023-03-25T04:43:47;99743.16;;;9.05;100.00
15272;BME280;7737;51.578;7.268;2023-03-25T04:46:17;99712.94;;;9.07;100.00
15272;BME280;7737;51.578;7.268;2023-03-25T04:48:44;99735.44;;;9.00;100.00
15272;BME280;7737;51.578;7.268;2023-03-25T04:51:12;99746.63;;;9.05;100.00
15272;BME280;7737;51.578;7.268;2023-03-25T04:53:39;99733.75;;;8.99;100.00
15272;BME280;7737;51.578;7.268;2023-03-25T04:56:11;99741.94;;;8.95;100.00
15272;BME280;7737;51.578;7.268;2023-03-25T04:58:40;99732.22;;;8.95;100.00
15272;BME280;7737;51.578;7.268;2023-03-25T05:01:07;99735.81;;;8.94;100.00
15272;BME280;7737;51.578;7.268;2023-03-25T05:03:38;99741.31;;;8.91;100.00
15272;BME280;7737;51.578;7.268;2023-03-25T05:06:05;99736.06;;;8.90;100.00
15272;BME280;7737;51.578;7.268;2023-03-25T05:08:33;99729.75;;;8.92;100.00
15272;BME280;7737;51.578;7.268;2023-03-25T05:10:59;99729.50;;;8.97;100.00
15272;BME280;7737;51.578;7.268;2023-03-25T05:13:27;99730.13;;;9.00;100.00
15272;BME280;7737;51.578;7.268;2023-03-25T05:15:53;99726.47;;;9.03;100.00
15272;BME280;7737;51.578;7.268;2023-03-25T05:18:20;99728.28;;;9.02;100.00
15272;BME280;7737;51.578;7.268;2023-03-25T05:20:48;99732.38;;;9.08;100.00
15272;BME280;7737;51.578;7.268;2023-03-25T05:23:15;99726.38;;;9.04;100.00
15272;BME280;7737;51.578;7.268;2023-03-25T05:25:43;99723.91;;;9.01;100.00
15272;BME280;7737;51.578;7.268;2023-03-25T05:28:10;99721.25;;;9.01;100.00
15272;BME280;7737;51.578;7.268;2023-03-25T05:30:38;99735.09;;;9.06;100.00
15272;BME280;7737;51.578;7.268;2023-03-25T05:33:06;99736.41;;;8.99;100.00
15272;BME280;7737;51.578;7.268;2023-03-25T05:35:34;99732.78;;;9.00;100.00
15272;BME280;7737;51.578;7.268;2023-03-25T05:38:02;99734.63;;;9.00;100.00
15272;BME280;7737;51.578;7.268;2023-03-25T05:40:29;99735.19;;;9.05;100.00
15272;BME280;7737;51.578;7.268;2023-03-25T05:42:56;99736.03;;;9.05;100.00
15272;BME280;7737;51.578;7.268;2023-03-25T05:45:22;99742.19;;;9.06;100.00
15272;BME280;7737;51.578;7.268;2023-03-25T05:47:49;99732.44;;;9.06;100.00
15272;BME280;7737;51.578;7.268;2023-03-25T05:50:16;99736.03;;;9.05;100.00
15272;BME280;7737;51.578;7.268;2023-03-25T05:52:43;99739.53;;;9.06;100.00
15272;BME280;7737;51.578;7.268;2023-03-25T05:55:14;99742.09;;;9.07;100.00
15272;BME280;7737;51.578;7.268;2023-03-25T05:57:41;99740.97;;;9.11;100.00
15272;BME280;7737;51.578;7.268;2023-03-25T06:00:08;99729.44;;;9.12;100.00
15272;BME280;7737;51.578;7.268;2023-03-25T06:02:37;99745.25;;;9.14;100.00
15272;BME280;7737;51.578;7.268;2023-03-25T06:05:04;99737.09;;;9.17;100.00
15272;BME280;7737;51.578;7.268;2023-03-25T06:07:34;99738.72;;;9.19;100.00
15272;BME280;7737;51.578;7.268;2023-03-25T06:10:03;99744.78;;;9.22;100.00
15272;BME280;7737;51.578;7.268;2023-03-25T06:12:31;99737.78;;;9.21;100.00
15272;BME280;7737;51.578;7.268;2023-03-25T06:15:03;99738.53;;;9.23;100.00
15272;BME280;7737;51.578;7.268;2023-03-25T06:17:30;99731.34;;;9.25;100.00
15272;BME280;7737;51.578;7.268;2023-03-25T06:19:57;99730.41;;;9.26;100.00
15272;BME280;7737;51.578;7.268;2023-03-25T06:22:24;99731.09;;;9.29;100.00
15272;BME280;7737;51.578;7.268;2023-03-25T06:24:51;99735.53;;;9.29;100.00
15272;BME280;7737;51.578;7.268;2023-03-25T06:27:18;99739.13;;;9.28;100.00
15272;BME280;7737;51.578;7.268;2023-03-25T06:29:47;99748.97;;;9.26;100.00
15272;BME280;7737;51.578;7.268;2023-03-25T06:32:14;99743.03;;;9.36;100.00
15272;BME280;7737;51.578;7.268;2023-03-25T06:34:40;99740.38;;;9.36;100.00
15272;BME280;7737;51.578;7.268;2023-03-25T06:37:09;99750.69;;;9.41;100.00
15272;BME280;7737;51.578;7.268;2023-03-25T06:39:36;99746.94;;;9.45;100.00
15272;BME280;7737;51.578;7.268;2023-03-25T06:42:04;99757.31;;;9.48;100.00
15272;BME280;7737;51.578;7.268;2023-03-25T06:44:30;99748.44;;;9.49;100.00
15272;BME280;7737;51.578;7.268;2023-03-25T06:46:58;99754.78;;;9.46;100.00
15272;BME280;7737;51.578;7.268;2023-03-25T06:49:26;99741.16;;;9.52;100.00
15272;BME280;7737;51.578;7.268;2023-03-25T06:51:53;99750.22;;;9.48;100.00
15272;BME280;7737;51.578;7.268;2023-03-25T06:54:19;99749.47;;;9.46;100.00
15272;BME280;7737;51.578;7.268;2023-03-25T06:56:46;99764.53;;;9.46;100.00
15272;BME280;7737;51.578;7.268;2023-03-25T06:59:13;99759.03;;;9.49;100.00
15272;BME280;7737;51.578;7.268;2023-03-25T07:01:39;99763.41;;;9.50;100.00
15272;BME280;7737;51.578;7.268;2023-03-25T07:04:09;99754.13;;;9.57;100.00
15272;BME280;7737;51.578;7.268;2023-03-25T07:06:35;99750.53;;;9.72;100.00
15272;BME280;7737;51.578;7.268;2023-03-25T07:09:02;99750.34;;;9.75;100.00
15272;BME280;7737;51.578;7.268;2023-03-25T07:11:29;99745.97;;;9.88;100.00
15272;BME280;7737;51.578;7.268;2023-03-25T07:13:57;99751.78;;;9.95;100.00
15272;BME280;7737;51.578;7.268;2023-03-25T07:16:23;99737.66;;;9.94;100.00
15272;BME280;7737;51.578;7.268;2023-03-25T07:18:50;99743.13;;;9.91;100.00
15272;BME280;7737;51.578;7.268;2023-03-25T07:21:20;99731.41;;;9.81;100.00
15272;BME280;7737;51.578;7.268;2023-03-25T07:23:46;99734.13;;;9.79;100.00
15272;BME280;7737;51.578;7.268;2023-03-25T07:26:13;99754.34;;;9.82;100.00
15272;BME280;7737;51.578;7.268;2023-03-25T07:28:39;99747.31;;;9.81;100.00
15272;BME280;7737;51.578;7.268;2023-03-25T07:31:06;99752.81;;;9.92;100.00
15272;BME280;7737;51.578;7.268;2023-03-25T07:33:33;99749.97;;;9.95;100.00
15272;BME280;7737;51.578;7.268;2023-03-25T07:36:01;99751.97;;;9.92;100.00
15272;BME280;7737;51.578;7.268;2023-03-25T07:38:28;99763.81;;;10.00;100.00
15272;BME280;7737;51.578;7.268;2023-03-25T07:40:55;99758.50;;;10.00;100.00
15272;BME280;7737;51.578;7.268;2023-03-25T07:43:21;99758.50;;;10.00;100.00
15272;BME280;7737;51.578;7.268;2023-03-25T07:45:48;99768.75;;;9.92;100.00
15272;BME280;7737;51.578;7.268;2023-03-25T07:48:15;99769.78;;;9.90;100.00
15272;BME280;7737;51.578;7.268;2023-03-25T07:50:42;99765.13;;;9.93;100.00
15272;BME280;7737;51.578;7.268;2023-03-25T07:53:11;99769.97;;;9.87;100.00
15272;BME280;7737;51.578;7.268;2023-03-25T07:55:38;99776.53;;;9.81;100.00
15272;BME280;7737;51.578;7.268;2023-03-25T07:58:05;99780.22;;;9.78;100.00
15272;BME280;7737;51.578;7.268;2023-03-25T08:00:32;99786.63;;;9.74;100.00
15272;BME280;7737;51.578;7.268;2023-03-25T08:02:58;99786.00;;;9.71;100.00
15272;BME280;7737;51.578;7.268;2023-03-25T08:05:25;99786.63;;;9.74;100.00
15272;BME280;7737;51.578;7.268;2023-03-25T08:07:52;99789.41;;;9.73;100.00
15272;BME280;7737;51.578;7.268;2023-03-25T08:10:20;99803.25;;;9.78;100.00
15272;BME280;7737;51.578;7.268;2023-03-25T08:12:50;99789.22;;;9.76;100.00
15272;BME280;7737;51.578;7.268;2023-03-25T08:15:18;99793.38;;;9.80;100.00
15272;BME280;7737;51.578;7.268;2023-03-25T08:17:48;99786.78;;;9.87;100.00
15272;BME280;7737;51.578;7.268;2023-03-25T08:20:16;99793.22;;;9.97;100.00
15272;BME280;7737;51.578;7.268;2023-03-25T08:22:43;99792.84;;;10.03;100.00
15272;BME280;7737;51.578;7.268;2023-03-25T08:25:10;99781.66;;;10.12;100.00
15272;BME280;7737;51.578;7.268;2023-03-25T08:27:36;99781.38;;;10.17;100.00
15272;BME280;7737;51.578;7.268;2023-03-25T08:30:05;99767.13;;;10.32;100.00
15272;BME280;7737;51.578;7.268;2023-03-25T08:32:34;99771.22;;;10.37;100.00
15272;BME280;7737;51.578;7.268;2023-03-25T08:35:03;99758.47;;;10.43;100.00
15272;BME280;7737;51.578;7.268;2023-03-25T08:37:30;99763.03;;;10.67;100.00
15272;BME280;7737;51.578;7.268;2023-03-25T08:39:59;99747.03;;;10.55;100.00
15272;BME280;7737;51.578;7.268;2023-03-25T08:42:26;99752.56;;;10.52;100.00
15272;BME280;7737;51.578;7.268;2023-03-25T08:44:52;99758.47;;;10.43;100.00
15272;BME280;7737;51.578;7.268;2023-03-25T08:47:20;99760.66;;;10.36;100.00
15272;BME280;7737;51.578;7.268;2023-03-25T08:49:46;99748.63;;;10.30;100.00
15272;BME280;7737;51.578;7.268;2023-03-25T08:52:13;99745.03;;;10.31;100.00
15272;BME280;7737;51.578;7.268;2023-03-25T08:54:40;99748.25;;;10.36;100.00
15272;BME280;7737;51.578;7.268;2023-03-25T08:57:07;99752.75;;;10.49;100.00
15272;BME280;7737;51.578;7.268;2023-03-25T08:59:33;99745.06;;;10.58;100.00
15272;BME280;7737;51.578;7.268;2023-03-25T09:02:00;99736.69;;;10.64;100.00
15272;BME280;7737;51.578;7.268;2023-03-25T09:04:27;99741.50;;;10.72;100.00
15272;BME280;7737;51.578;7.268;2023-03-25T09:06:55;99731.25;;;10.66;100.00
15272;BME280;7737;51.578;7.268;2023-03-25T09:09:21;99755.88;;;10.55;100.00
15272;BME280;7737;51.578;7.268;2023-03-25T09:11:48;99760.47;;;10.39;100.00
15272;BME280;7737;51.578;7.268;2023-03-25T09:14:15;99772.81;;;10.40;100.00
15272;BME280;7737;51.578;7.268;2023-03-25T09:16:41;99769.31;;;10.39;100.00
15272;BME280;7737;51.578;7.268;2023-03-25T09:19:08;99770.59;;;10.47;100.00
15272;BME280;7737;51.578;7.268;2023-03-25T09:21:36;99770.78;;;10.44;100.00
15272;BME280;7737;51.578;7.268;2023-03-25T09:24:03;99773.50;;;10.29;100.00
15272;BME280;7737;51.578;7.268;2023-03-25T09:26:29;99785.53;;;10.21;100.00
15272;BME280;7737;51.578;7.268;2023-03-25T09:28:56;99785.63;;;10.19;100.00
15272;BME280;7737;51.578;7.268;2023-03-25T09:31:25;99771.59;;;10.31;100.00
15272;BME280;7737;51.578;7.268;2023-03-25T09:33:51;99764.25;;;10.49;100.00
15272;BME280;7737;51.578;7.268;2023-03-25T09:36:18;99760.09;;;10.72;100.00
15272;BME280;7737;51.578;7.268;2023-03-25T09:38:45;99760.13;;;11.11;100.00
15272;BME280;7737;51.578;7.268;2023-03-25T09:41:25;99763.88;;;11.34;100.00
15272;BME280;7737;51.578;7.268;2023-03-25T09:44:00;99758.94;;;11.15;100.00
15272;BME280;7737;51.578;7.268;2023-03-25T09:46:30;99748.81;;;11.08;100.00
15272;BME280;7737;51.578;7.268;2023-03-25T09:48:57;99776.88;;;10.99;100.00
15272;BME280;7737;51.578;7.268;2023-03-25T09:51:27;99771.13;;;10.66;100.00
15272;BME280;7737;51.578;7.268;2023-03-25T09:54:01;99793.53;;;10.62;100.00
15272;BME280;7737;51.578;7.268;2023-03-25T09:56:33;99799.09;;;10.45;100.00
15272;BME280;7737;51.578;7.268;2023-03-25T09:59:04;99803.66;;;10.43;100.00
15272;BME280;7737;51.578;7.268;2023-03-25T10:01:36;99806.47;;;10.54;100.00
15272;BME280;7737;51.578;7.268;2023-03-25T10:04:31;99805.56;;;10.67;100.00
15272;BME280;7737;51.578;7.268;2023-03-25T10:07:14;99800.66;;;10.61;100.00
15272;BME280;7737;51.578;7.268;2023-03-25T10:09:56;99803.94;;;10.79;100.00
15272;BME280;7737;51.578;7.268;2023-03-25T10:12:32;99802.56;;;10.86;100.00
15272;BME280;7737;51.578;7.268;2023-03-25T10:15:12;99807.06;;;10.85;100.00
15272;BME280;7737;51.578;7.268;2023-03-25T10:17:45;99813.47;;;10.69;100.00
15272;BME280;7737;51.578;7.268;2023-03-25T10:20:21;99815.94;;;10.58;100.00
15272;BME280;7737;51.578;7.268;2023-03-25T10:22:59;99818.63;;;10.44;100.00
15272;BME280;7737;51.578;7.268;2023-03-25T10:25:31;99828.31;;;10.30;100.00
15272;BME280;7737;51.578;7.268;2023-03-25T10:28:00;99837.13;;;10.17;100.00
15272;BME280;7737;51.578;7.268;2023-03-25T10:30:31;99849.34;;;10.05;100.00
15272;BME280;7737;51.578;7.268;2023-03-25T10:33:01;99869.06;;;10.01;100.00
15272;BME280;7737;51.578;7.268;2023-03-25T10:35:32;99864.78;;;9.99;100.00
15272;BME280;7737;51.578;7.268;2023-03-25T10:38:03;99855.59;;;10.04;100.00
15272;BME280;7737;51.578;7.268;2023-03-25T10:40:35;99856.06;;;9.97;100.00
15272;BME280;7737;51.578;7.268;2023-03-25T10:43:13;99845.72;;;10.06;100.00
15272;BME280;7737;51.578;7.268;2023-03-25T10:45:41;99845.03;;;10.18;100.00
15272;BME280;7737;51.578;7.268;2023-03-25T10:48:11;99843.63;;;10.68;100.00
15272;BME280;7737;51.578;7.268;2023-03-25T10:50:40;99851.44;;;10.57;100.00
15272;BME280;7737;51.578;7.268;2023-03-25T10:53:17;99855.91;;;10.56;100.00
15272;BME280;7737;51.578;7.268;2023-03-25T10:55:47;99848.44;;;10.34;100.00
15272;BME280;7737;51.578;7.268;2023-03-25T10:58:17;99859.06;;;10.20;100.00
15272;BME280;7737;51.578;7.268;2023-03-25T11:00:44;99846.94;;;10.16;100.00
15272;BME280;7737;51.578;7.268;2023-03-25T11:03:15;99863.03;;;10.13;100.00
15272;BME280;7737;51.578;7.268;2023-03-25T11:05:42;99850.88;;;9.95;100.00
15272;BME280;7737;51.578;7.268;2023-03-25T11:08:10;99857.31;;;10.05;100.00
15272;BME280;7737;51.578;7.268;2023-03-25T11:10:36;99863.44;;;10.21;100.00
15272;BME280;7737;51.578;7.268;2023-03-25T11:13:11;99864.88;;;10.11;100.00
15272;BME280;7737;51.578;7.268;2023-03-25T11:15:40;99851.03;;;10.06;100.00
15272;BME280;7737;51.578;7.268;2023-03-25T11:18:12;99863.19;;;10.10;100.00
15272;BME280;7737;51.578;7.268;2023-03-25T11:20:45;99873.50;;;10.01;100.00
15272;BME280;7737;51.578;7.268;2023-03-25T11:23:21;99869.91;;;10.02;100.00
15272;BME280;7737;51.578;7.268;2023-03-25T11:25:49;99853.81;;;10.05;100.00
15272;BME280;7737;51.578;7.268;2023-03-25T11:28:21;99848.53;;;10.19;100.00
15272;BME280;7737;51.578;7.268;2023-03-25T11:31:11;99842.16;;;10.50;100.00
15272;BME280;7737;51.578;7.268;2023-03-25T11:33:40;99840.25;;;10.52;100.00
15272;BME280;7737;51.578;7.268;2023-03-25T11:36:12;99841.84;;;10.54;100.00
15272;BME280;7737;51.578;7.268;2023-03-25T11:38:39;99833.69;;;10.98;100.00
15272;BME280;7737;51.578;7.268;2023-03-25T11:41:06;99827.47;;;11.12;100.00
15272;BME280;7737;51.578;7.268;2023-03-25T11:43:35;99825.34;;;11.43;100.00
15272;BME280;7737;51.578;7.268;2023-03-25T11:46:07;99809.13;;;11.86;100.00
15272;BME280;7737;51.578;7.268;2023-03-25T11:48:36;99808.53;;;11.55;100.00
15272;BME280;7737;51.578;7.268;2023-03-25T11:51:07;99806.72;;;11.43;100.00
15272;BME280;7737;51.578;7.268;2023-03-25T11:53:37;99806.06;;;11.65;100.00
15272;BME280;7737;51.578;7.268;2023-03-25T11:56:10;99795.25;;;12.06;100.00
15272;BME280;7737;51.578;7.268;2023-03-25T11:58:41;99796.81;;;12.46;100.00
15272;BME280;7737;51.578;7.268;2023-03-25T12:01:20;99788.03;;;12.57;100.00
15272;BME280;7737;51.578;7.268;2023-03-25T12:03:49;99793.63;;;12.41;100.00
15272;BME280;7737;51.578;7.268;2023-03-25T12:06:18;99781.38;;;12.39;100.00
15272;BME280;7737;51.578;7.268;2023-03-25T12:08:48;99777.84;;;12.38;100.00
15272;BME280;7737;51.578;7.268;2023-03-25T12:11:17;99776.22;;;12.48;100.00
15272;BME280;7737;51.578;7.268;2023-03-25T12:14:06;99762.84;;;12.25;100.00
15272;BME280;7737;51.578;7.268;2023-03-25T12:16:41;99758.06;;;12.17;100.00
15272;BME280;7737;51.578;7.268;2023-03-25T12:19:15;99755.72;;;12.00;100.00
15272;BME280;7737;51.578;7.268;2023-03-25T12:22:00;99746.50;;;11.80;100.00
15272;BME280;7737;51.578;7.268;2023-03-25T12:24:41;99757.69;;;11.73;100.00
15272;BME280;7737;51.578;7.268;2023-03-25T12:27:23;99744.63;;;11.55;100.00
15272;BME280;7737;51.578;7.268;2023-03-25T12:29:59;99757.75;;;11.58;100.00
15272;BME280;7737;51.578;7.268;2023-03-25T12:32:34;99751.59;;;11.71;100.00
15272;BME280;7737;51.578;7.268;2023-03-25T12:35:16;99744.91;;;11.78;100.00
15272;BME280;7737;51.578;7.268;2023-03-25T12:37:59;99742.63;;;11.84;100.00
15272;BME280;7737;51.578;7.268;2023-03-25T12:40:42;99752.84;;;12.03;100.00
15272;BME280;7737;51.578;7.268;2023-03-25T12:43:15;99748.13;;;12.55;100.00
15272;BME280;7737;51.578;7.268;2023-03-25T12:45:55;99736.97;;;12.50;100.00
15272;BME280;7737;51.578;7.268;2023-03-25T12:48:37;99710.38;;;12.61;100.00
15272;BME280;7737;51.578;7.268;2023-03-25T12:51:16;99713.69;;;12.52;100.00
15272;BME280;7737;51.578;7.268;2023-03-25T12:53:55;99707.91;;;12.58;100.00
15272;BME280;7737;51.578;7.268;2023-03-25T12:56:36;99705.44;;;12.44;100.00
15272;BME280;7737;51.578;7.268;2023-03-25T12:59:18;99692.25;;;12.30;100.00
15272;BME280;7737;51.578;7.268;2023-03-25T13:01:57;99681.16;;;12.95;100.00
15272;BME280;7737;51.578;7.268;2023-03-25T13:04:43;99694.44;;;13.53;100.00
15272;BME280;7737;51.578;7.268;2023-03-25T13:07:16;99677.69;;;13.29;100.00
15272;BME280;7737;51.578;7.268;2023-03-25T13:09:52;99686.19;;;12.75;100.00
15272;BME280;7737;51.578;7.268;2023-03-25T13:12:27;99686.75;;;12.92;100.00
15272;BME280;7737;51.578;7.268;2023-03-25T13:15:01;99700.22;;;12.66;100.00
15272;BME280;7737;51.578;7.268;2023-03-25T13:17:34;99680.59;;;12.67;100.00
15272;BME280;7737;51.578;7.268;2023-03-25T13:20:04;99684.50;;;12.74;100.00
15272;BME280;7737;51.578;7.268;2023-03-25T13:22:37;99684.31;;;12.89;100.00
15272;BME280;7737;51.578;7.268;2023-03-25T13:25:06;99689.94;;;12.73;100.00
15272;BME280;7737;51.578;7.268;2023-03-25T13:27:41;99693.84;;;12.56;100.00